Time;durP1;ratioP1;P1;durP2;ratioP2;P2;SDS_P1;SDS_P2;PMS_P1;PMS_P2;Temp;Humidity;BMP_temperature;BMP_pressure;BME280_temperature;BME280_humidity;BME280_pressure;Samples;Min_cycle;Max_cycle;Signal;HPM_P1;HPM_P2
2023/10/11 00:02:08;;;;;;;34.38;15.50;;;16.70;99.90;;;;;;4814450;29;20047;-58
2023/10/11 00:04:34;;;;;;;27.75;15.38;;;16.70;99.90;;;;;;4812019;29;20161;-58
2023/10/11 00:07:00;;;;;;;38.40;16.48;;;16.80;99.90;;;;;;4814195;29;20100;-57
2023/10/11 00:09:35;;;;;;;33.63;17.38;;;16.80;99.90;;;;;;4813982;29;20094;-57
2023/10/11 00:12:05;;;;;;;33.13;15.98;;;16.80;99.90;;;;;;4813068;29;20039;-58
2023/10/11 00:14:31;;;;;;;35.97;17.10;;;16.70;99.90;;;;;;4813841;29;20088;-57
2023/10/11 00:16:57;;;;;;;32.45;16.75;;;16.70;99.90;;;;;;4811486;29;20058;-57
2023/10/11 00:19:28;;;;;;;31.45;16.15;;;16.70;99.90;;;;;;4813886;29;20102;-57
2023/10/11 00:21:54;;;;;;;35.05;15.48;;;16.70;99.90;;;;;;4813071;29;20055;-57
2023/10/11 00:24:23;;;;;;;37.35;18.13;;;16.70;99.90;;;;;;4813545;29;20610;-57
2023/10/11 00:26:49;;;;;;;38.05;17.33;;;16.70;99.90;;;;;;4813559;29;20114;-58
2023/10/11 00:29:16;;;;;;;35.10;17.20;;;16.80;99.90;;;;;;4812701;29;20051;-57
2023/10/11 00:31:42;;;;;;;36.08;16.45;;;16.70;99.90;;;;;;4813770;29;20046;-58
2023/10/11 00:34:10;;;;;;;37.78;17.10;;;16.70;99.90;;;;;;4812171;29;20480;-57
2023/10/11 00:36:36;;;;;;;37.05;17.60;;;16.70;99.90;;;;;;4813694;29;20532;-57
2023/10/11 00:39:05;;;;;;;35.45;17.42;;;16.70;99.90;;;;;;4812906;29;20074;-58
2023/10/11 00:41:31;;;;;;;35.75;17.63;;;16.80;99.90;;;;;;4813440;29;20107;-58
2023/10/11 00:43:57;;;;;;;34.08;16.90;;;16.70;99.90;;;;;;4813779;29;20074;-57
2023/10/11 00:46:29;;;;;;;40.33;17.67;;;16.70;99.90;;;;;;4812669;29;20063;-57
2023/10/11 00:49:09;;;;;;;36.20;17.42;;;16.70;99.90;;;;;;4813703;29;20054;-58
2023/10/11 00:51:36;;;;;;;32.50;17.23;;;16.70;99.90;;;;;;4812350;29;20077;-57
2023/10/11 00:54:05;;;;;;;42.50;17.30;;;16.70;99.90;;;;;;4813774;29;20061;-58
2023/10/11 00:56:31;;;;;;;38.15;17.63;;;16.70;99.90;;;;;;4812713;29;20047;-57
2023/10/11 00:59:08;;;;;;;42.63;18.98;;;16.60;99.90;;;;;;4811544;29;20492;-58
2023/10/11 01:01:34;;;;;;;40.08;18.05;;;16.60;99.90;;;;;;4813600;29;20059;-57
2023/10/11 01:04:00;;;;;;;38.90;17.50;;;16.70;99.90;;;;;;4812158;29;20055;-58
2023/10/11 01:06:26;;;;;;;34.90;17.38;;;16.70;99.90;;;;;;4813548;29;20190;-58
2023/10/11 01:08:53;;;;;;;36.17;16.33;;;16.60;99.90;;;;;;4812338;29;20047;-58
2023/10/11 01:11:18;;;;;;;31.48;16.60;;;16.60;99.90;;;;;;4813512;29;20039;-57
2023/10/11 01:13:53;;;;;;;41.97;18.35;;;16.60;99.90;;;;;;4813383;29;20111;-57
2023/10/11 01:16:26;;;;;;;43.47;18.13;;;16.50;99.90;;;;;;4813211;29;20057;-58
2023/10/11 01:18:52;;;;;;;38.95;15.93;;;16.60;99.90;;;;;;4817009;29;20050;-58
2023/10/11 01:21:21;;;;;;;36.22;16.08;;;16.50;99.90;;;;;;4815528;29;20059;-57
2023/10/11 01:23:48;;;;;;;39.17;17.70;;;16.50;99.90;;;;;;4816830;29;20507;-57
2023/10/11 01:26:15;;;;;;;38.65;16.17;;;16.50;99.90;;;;;;4815607;29;20070;-57
2023/10/11 01:28:45;;;;;;;34.53;17.40;;;16.50;99.90;;;;;;4815244;29;20061;-58
2023/10/11 01:31:13;;;;;;;34.53;17.08;;;16.60;99.90;;;;;;4816963;29;20055;-58
2023/10/11 01:33:41;;;;;;;39.97;16.00;;;16.60;99.90;;;;;;4815288;29;20103;-58
2023/10/11 01:36:08;;;;;;;33.15;16.50;;;16.60;99.90;;;;;;4816496;29;20039;-58
2023/10/11 01:38:48;;;;;;;36.28;17.27;;;16.50;99.90;;;;;;4814981;29;20057;-58
2023/10/11 01:41:22;;;;;;;30.60;15.35;;;16.60;99.90;;;;;;4816780;29;20160;-58
2023/10/11 01:43:49;;;;;;;32.80;15.98;;;16.40;99.90;;;;;;4816267;29;20055;-58
2023/10/11 01:46:35;;;;;;;32.75;15.30;;;16.40;99.90;;;;;;4815480;29;20062;-58
2023/10/11 01:49:01;;;;;;;37.88;18.23;;;16.60;99.90;;;;;;4816227;29;20191;-57
2023/10/11 01:51:27;;;;;;;32.97;15.23;;;16.50;99.90;;;;;;4815218;29;20449;-58
2023/10/11 01:54:04;;;;;;;32.58;15.48;;;16.40;99.90;;;;;;4816420;29;20054;-58
2023/10/11 01:56:30;;;;;;;34.30;16.02;;;16.40;99.90;;;;;;4815560;29;20424;-56
2023/10/11 01:58:56;;;;;;;33.70;14.77;;;16.60;99.90;;;;;;4815768;29;20047;-58
2023/10/11 02:01:26;;;;;;;38.90;15.80;;;16.40;99.90;;;;;;4816592;29;20568;-58
2023/10/11 02:03:55;;;;;;;33.55;16.50;;;16.50;99.90;;;;;;4815254;29;20099;-58
2023/10/11 02:06:22;;;;;;;35.97;15.88;;;16.50;99.90;;;;;;4816116;29;20058;-58
2023/10/11 02:08:47;;;;;;;37.00;15.32;;;16.40;99.90;;;;;;4814784;29;20050;-58
2023/10/11 02:11:16;;;;;;;34.90;15.55;;;16.40;99.90;;;;;;4816474;29;20641;-58
2023/10/11 02:13:44;;;;;;;33.85;15.95;;;16.40;99.90;;;;;;4816058;29;20051;-57
2023/10/11 02:16:15;;;;;;;30.92;14.07;;;16.50;99.90;;;;;;4815216;29;20057;-58
2023/10/11 02:18:41;;;;;;;32.75;14.65;;;16.50;99.90;;;;;;4816247;29;20050;-57
2023/10/11 02:21:07;;;;;;;38.72;15.73;;;16.40;99.90;;;;;;4814501;29;20498;-58
2023/10/11 02:23:37;;;;;;;39.92;14.68;;;16.50;99.90;;;;;;4815522;29;20066;-58
2023/10/11 02:26:12;;;;;;;33.97;14.90;;;16.50;99.90;;;;;;4814823;29;20491;-57
2023/10/11 02:28:41;;;;;;;27.80;14.27;;;16.40;99.90;;;;;;4814808;29;20138;-58
2023/10/11 02:31:08;;;;;;;31.50;14.77;;;16.30;99.90;;;;;;4814430;29;20047;-57
2023/10/11 02:33:34;;;;;;;30.50;15.07;;;16.50;99.90;;;;;;4814547;29;20053;-59
2023/10/11 02:36:08;;;;;;;36.95;14.32;;;16.40;99.90;;;;;;4815856;29;20057;-58
2023/10/11 02:38:54;;;;;;;33.00;14.35;;;16.30;99.90;;;;;;4812629;29;20531;-58
2023/10/11 02:41:26;;;;;;;33.00;14.38;;;16.40;99.90;;;;;;4815607;29;20107;-58
2023/10/11 02:43:57;;;;;;;;;;;16.30;99.90;;;;;;4816311;29;20070;-58
2023/10/11 02:46:24;;;;;;;31.97;14.03;;;16.30;99.90;;;;;;4814275;29;19983;-58
2023/10/11 02:48:54;;;;;;;34.60;15.13;;;16.40;99.90;;;;;;4815711;29;20051;-58
2023/10/11 02:51:24;;;;;;;34.25;14.32;;;16.30;99.90;;;;;;4814007;29;20054;-57
2023/10/11 02:53:52;;;;;;;34.30;14.02;;;16.40;99.90;;;;;;4815666;29;20061;-58
2023/10/11 02:56:18;;;;;;;30.25;13.93;;;16.30;99.90;;;;;;4813315;29;20047;-58
2023/10/11 02:58:44;;;;;;;32.65;13.85;;;16.40;99.90;;;;;;4814923;29;20050;-57
2023/10/11 03:01:20;;;;;;;26.75;13.98;;;16.40;99.90;;;;;;4813946;29;20093;-57
2023/10/11 03:03:47;;;;;;;29.40;13.50;;;16.40;99.90;;;;;;4814020;29;20397;-57
2023/10/11 03:06:13;;;;;;;32.55;13.77;;;16.30;99.90;;;;;;4815348;29;20055;-57
2023/10/11 03:08:44;;;;;;;22.75;12.40;;;16.30;99.90;;;;;;4813600;29;20065;-57
2023/10/11 03:11:15;;;;;;;32.78;14.32;;;16.30;99.90;;;;;;4815420;29;20054;-58
2023/10/11 03:13:43;;;;;;;27.92;13.40;;;16.30;99.90;;;;;;4814866;29;20135;-58
2023/10/11 03:16:13;;;;;;;35.90;13.90;;;16.30;99.90;;;;;;4814083;29;20051;-58
2023/10/11 03:18:39;;;;;;;32.05;14.27;;;16.30;99.90;;;;;;4815084;29;20050;-58
2023/10/11 03:21:17;;;;;;;29.27;13.55;;;16.30;99.90;;;;;;4813437;29;20093;-57
2023/10/11 03:23:44;;;;;;;34.35;13.88;;;16.30;99.90;;;;;;4814641;29;20077;-57
2023/10/11 03:26:22;;;;;;;28.40;13.25;;;16.30;99.90;;;;;;4813564;29;20050;-58
2023/10/11 03:28:58;;;;;;;31.50;13.48;;;16.40;99.90;;;;;;4814572;29;20043;-58
2023/10/11 03:31:28;;;;;;;34.42;13.98;;;16.40;99.90;;;;;;4814800;29;20057;-58
2023/10/11 03:33:58;;;;;;;32.35;12.20;;;16.40;99.90;;;;;;4813254;29;20217;-57
2023/10/11 03:36:32;;;;;;;31.73;12.77;;;16.40;99.90;;;;;;4814628;29;20084;-58
2023/10/11 03:38:58;;;;;;;29.58;12.35;;;16.40;99.90;;;;;;4812085;29;20138;-58
2023/10/11 03:41:30;;;;;;;33.25;13.35;;;16.40;99.90;;;;;;4814315;29;20103;-57
2023/10/11 03:44:09;;;;;;;30.05;12.98;;;16.40;99.90;;;;;;4814663;29;20062;-58
2023/10/11 03:46:36;;;;;;;30.60;12.90;;;16.40;99.90;;;;;;4813045;29;20070;-58
2023/10/11 03:51:43;;;;;;;30.52;12.50;;;16.40;99.90;;;;;;4813514;29;20463;-56
2023/10/11 03:54:18;;;;;;;25.95;12.18;;;16.40;99.90;;;;;;4814797;29;20111;-58
2023/10/11 03:56:45;;;;;;;29.77;13.43;;;16.30;99.90;;;;;;4814528;29;20059;-58
2023/10/11 03:59:12;;;;;;;27.77;12.27;;;16.40;99.90;;;;;;4813226;29;20555;-58
2023/10/11 04:01:39;;;;;;;29.52;11.40;;;16.40;99.90;;;;;;4814512;29;20058;-58
2023/10/11 04:04:05;;;;;;;29.17;12.25;;;16.30;99.90;;;;;;4813350;29;20050;-58
2023/10/11 04:06:34;;;;;;;33.78;11.48;;;16.30;99.90;;;;;;4813679;29;20051;-58
2023/10/11 04:09:02;;;;;;;28.05;12.20;;;16.40;99.90;;;;;;4813304;29;20059;-57
2023/10/11 04:11:54;;;;;;;28.00;12.27;;;16.40;99.90;;;;;;4814257;29;20054;-58
2023/10/11 04:14:39;;;;;;;29.10;11.85;;;16.30;99.90;;;;;;4814577;29;20042;-58
2023/10/11 04:17:07;;;;;;;28.42;11.93;;;16.30;99.90;;;;;;4811815;29;20063;-58
2023/10/11 04:19:32;;;;;;;28.90;12.10;;;16.20;99.90;;;;;;4814388;29;20058;-58
2023/10/11 04:22:12;;;;;;;30.48;11.40;;;16.30;99.90;;;;;;4813686;29;20455;-57
2023/10/11 04:24:39;;;;;;;33.00;11.90;;;16.30;99.90;;;;;;4813621;29;20067;-58
2023/10/11 04:29:53;;;;;;;24.80;11.38;;;16.30;99.90;;;;;;4830201;29;20057;-58
2023/10/11 04:37:55;;;;;;;30.58;11.63;;;16.30;99.90;;;;;;4812491;29;20503;-58
2023/10/11 04:40:38;;;;;;;27.05;10.80;;;16.20;99.90;;;;;;4814569;29;20418;-58
2023/10/11 04:43:08;;;;;;;24.25;10.50;;;16.30;99.90;;;;;;4811232;29;20055;-58
2023/10/11 04:45:44;;;;;;;24.40;11.70;;;16.30;99.90;;;;;;4814211;29;20412;-58
2023/10/11 04:48:15;;;;;;;29.60;11.07;;;16.30;99.90;;;;;;4813874;29;20054;-59
2023/10/11 04:50:50;;;;;;;25.23;10.15;;;16.30;99.90;;;;;;4812323;29;20075;-57
2023/10/11 04:53:17;;;;;;;26.67;10.63;;;16.30;99.90;;;;;;4814273;29;20241;-58
2023/10/11 04:55:47;;;;;;;27.05;10.73;;;16.40;99.90;;;;;;4796008;29;20125;-58
2023/10/11 04:58:21;;;;;;;30.75;12.85;;;16.30;99.90;;;;;;4814036;29;20082;-58
2023/10/11 05:00:49;;;;;;;25.48;10.93;;;16.40;99.90;;;;;;4813714;29;20047;-58
2023/10/11 05:03:18;;;;;;;28.30;11.90;;;16.30;99.90;;;;;;4812758;29;20051;-58
2023/10/11 05:05:58;;;;;;;31.13;11.40;;;16.30;99.90;;;;;;4814014;29;20062;-58
2023/10/11 05:08:50;;;;;;;22.90;10.07;;;16.40;99.90;;;;;;4812189;29;20059;-58
2023/10/11 05:11:19;;;;;;;22.92;10.90;;;16.40;99.90;;;;;;4813739;29;20078;-57
2023/10/11 05:13:59;;;;;;;26.65;11.18;;;16.40;99.90;;;;;;4812435;29;20054;-58
2023/10/11 05:16:25;;;;;;;23.88;10.85;;;16.40;99.90;;;;;;4812647;29;20051;-58
2023/10/11 05:18:50;;;;;;;26.13;10.85;;;16.40;99.90;;;;;;4814060;29;20504;-58
2023/10/11 05:21:18;;;;;;;32.25;11.05;;;16.30;99.90;;;;;;4812614;29;20043;-58
2023/10/11 05:24:13;;;;;;;28.80;11.27;;;16.40;99.90;;;;;;4812122;29;20115;-58
2023/10/11 05:26:47;;;;;;;27.30;11.23;;;16.30;99.90;;;;;;4813343;29;20051;-58
2023/10/11 05:29:24;;;;;;;27.77;11.15;;;16.40;99.90;;;;;;4812606;29;20079;-58
2023/10/11 05:32:20;;;;;;;27.50;11.02;;;16.40;99.90;;;;;;4813710;29;20091;-58
2023/10/11 05:35:06;;;;;;;;;;;16.40;99.90;;;;;;4812793;29;20051;-58
2023/10/11 05:51:14;;;;;;;30.67;10.88;;;16.50;99.90;;;;;;4812161;29;20055;-58
2023/10/11 05:53:42;;;;;;;25.95;11.50;;;16.50;99.90;;;;;;4813488;29;20051;-58
2023/10/11 05:56:20;;;;;;;29.92;11.25;;;16.50;99.90;;;;;;4812462;29;20047;-58
2023/10/11 05:58:50;;;;;;;27.02;11.43;;;16.50;99.90;;;;;;4812614;29;20047;-58
2023/10/11 06:01:21;;;;;;;23.35;10.85;;;16.60;99.90;;;;;;4811452;29;20074;-58
2023/10/11 06:03:56;;;;;;;30.58;11.85;;;16.60;99.90;;;;;;4810254;29;20123;-58
2023/10/11 06:06:32;;;;;;;25.08;12.40;;;16.60;99.90;;;;;;4813092;29;20491;-58
2023/10/11 06:08:58;;;;;;;26.20;10.65;;;16.60;99.90;;;;;;4811554;29;20142;-57
2023/10/11 06:11:36;;;;;;;28.92;11.20;;;16.60;99.90;;;;;;4811476;29;20054;-58
2023/10/11 06:14:05;;;;;;;25.83;10.90;;;16.60;99.90;;;;;;4812957;29;20135;-56
2023/10/11 06:16:37;;;;;;;29.05;11.82;;;16.60;99.90;;;;;;4811516;29;20050;-58
2023/10/11 06:19:18;;;;;;;28.25;12.05;;;16.60;99.90;;;;;;4813007;29;20122;-58
2023/10/11 06:21:58;;;;;;;23.07;11.00;;;16.70;99.90;;;;;;4811990;29;20054;-57
2023/10/11 06:24:34;;;;;;;23.38;11.80;;;16.70;99.90;;;;;;4812123;29;20331;-58
2023/10/11 06:29:37;;;;;;;29.00;12.05;;;16.70;99.90;;;;;;4811620;29;20097;-58
2023/10/11 06:32:11;;;;;;;25.42;10.68;;;16.60;99.90;;;;;;4796967;29;20428;-58
2023/10/11 06:34:37;;;;;;;25.08;11.02;;;16.70;99.90;;;;;;4810677;29;20058;-58
2023/10/11 06:37:06;;;;;;;25.95;10.70;;;16.70;99.90;;;;;;4812311;29;20055;-58
2023/10/11 06:44:58;;;;;;;23.00;10.57;;;16.70;99.90;;;;;;4810758;29;20098;-58
2023/10/11 06:47:25;;;;;;;25.88;11.43;;;16.70;99.90;;;;;;4811483;29;20499;-58
2023/10/11 06:49:55;;;;;;;23.80;10.93;;;16.70;99.90;;;;;;4812124;29;20059;-58
2023/10/11 06:52:33;;;;;;;26.80;12.20;;;16.70;99.90;;;;;;4794511;29;20135;-58
2023/10/11 06:55:16;;;;;;;23.40;11.18;;;16.70;99.90;;;;;;4792752;29;20123;-57
2023/10/11 06:57:45;;;;;;;28.58;10.32;;;16.70;99.90;;;;;;4793312;29;20090;-58
2023/10/11 07:00:28;;;;;;;27.77;12.38;;;16.70;99.90;;;;;;4792038;30;20115;-57
2023/10/11 07:05:49;;;;;;;20.85;10.98;;;16.80;99.90;;;;;;4793327;29;20098;-58
2023/10/11 07:08:19;;;;;;;24.85;11.48;;;16.80;99.90;;;;;;4792777;29;20053;-58
2023/10/11 07:13:54;;;;;;;25.70;10.77;;;16.90;99.90;;;;;;4793500;29;20115;-58
2023/10/11 07:16:24;;;;;;;16.90;9.75;;;16.90;99.90;;;;;;4791456;30;20059;-58
2023/10/11 07:18:54;;;;;;;24.27;11.57;;;16.90;99.90;;;;;;4794286;29;20050;-58
2023/10/11 07:21:25;;;;;;;23.33;10.40;;;17.00;99.90;;;;;;4792586;29;20080;-58
2023/10/11 07:28:53;;;;;;;24.17;11.30;;;17.00;99.90;;;;;;4829148;29;20066;-58
2023/10/11 07:31:33;;;;;;;19.33;10.25;;;17.10;99.90;;;;;;4830317;29;20077;-55
2023/10/11 07:34:05;;;;;;;23.23;11.18;;;17.10;99.90;;;;;;4818637;29;20058;-57
2023/10/11 07:36:31;;;;;;;22.05;10.90;;;17.10;99.90;;;;;;4812017;29;20060;-58
2023/10/11 07:39:00;;;;;;;28.48;12.05;;;17.10;99.90;;;;;;4810856;29;20079;-57
2023/10/11 07:41:29;;;;;;;19.27;10.13;;;17.10;99.90;;;;;;4809520;29;20084;-59
2023/10/11 07:43:56;;;;;;;27.10;11.95;;;17.30;99.90;;;;;;4811907;29;20225;-58
2023/10/11 07:46:23;;;;;;;28.60;11.20;;;17.30;99.90;;;;;;4808784;29;20082;-58
2023/10/11 07:48:56;;;;;;;23.63;11.02;;;17.30;99.90;;;;;;4811931;29;20058;-58
2023/10/11 07:51:25;;;;;;;31.92;12.52;;;17.30;99.90;;;;;;4813444;29;20039;-58
2023/10/11 07:53:51;;;;;;;31.40;11.85;;;17.30;99.90;;;;;;4813560;29;20065;-61
2023/10/11 07:56:16;;;;;;;26.35;12.07;;;17.30;99.90;;;;;;4814181;29;20074;-58
2023/10/11 07:58:46;;;;;;;23.40;11.52;;;17.40;99.90;;;;;;4814303;29;20521;-58
2023/10/11 08:01:24;;;;;;;26.58;12.20;;;17.40;99.90;;;;;;4814826;29;20046;-58
2023/10/11 08:03:51;;;;;;;26.48;11.10;;;17.30;99.90;;;;;;4813224;29;20118;-58
2023/10/11 08:06:25;;;;;;;25.90;10.98;;;17.30;99.90;;;;;;4813551;29;20106;-56
2023/10/11 08:08:58;;;;;;;23.60;10.52;;;17.30;99.90;;;;;;4813512;29;20268;-58
2023/10/11 08:11:27;;;;;;;18.88;9.48;;;17.30;99.90;;;;;;4812190;29;20059;-58
2023/10/11 08:14:00;;;;;;;21.83;10.98;;;17.30;99.90;;;;;;4814643;29;20051;-58
2023/10/11 08:16:26;;;;;;;26.02;11.02;;;17.30;99.90;;;;;;4811679;29;20439;-58
2023/10/11 08:18:52;;;;;;;20.70;10.23;;;17.40;99.90;;;;;;4814517;29;20060;-58
2023/10/11 08:21:18;;;;;;;27.35;11.15;;;17.40;99.90;;;;;;4811116;29;20084;-58
2023/10/11 08:23:44;;;;;;;19.08;10.13;;;17.30;99.90;;;;;;4814352;29;20129;-58
2023/10/11 08:26:14;;;;;;;23.85;10.52;;;17.30;99.90;;;;;;4812393;29;20058;-58
2023/10/11 08:28:49;;;;;;;21.58;10.25;;;17.30;99.90;;;;;;4813693;29;20050;-58
2023/10/11 08:34:00;;;;;;;21.85;9.70;;;17.30;99.90;;;;;;4813058;29;20053;-58
2023/10/11 08:36:29;;;;;;;24.70;10.85;;;17.20;99.90;;;;;;4814305;29;20086;-58
2023/10/11 08:39:00;;;;;;;24.83;11.23;;;17.20;99.90;;;;;;4812057;29;20054;-58
2023/10/11 08:41:26;;;;;;;23.00;10.15;;;17.30;99.90;;;;;;4813863;29;20093;-58
2023/10/11 08:43:56;;;;;;;24.00;10.55;;;17.30;99.90;;;;;;4814704;29;20106;-58
2023/10/11 08:46:27;;;;;;;24.17;10.27;;;17.30;99.90;;;;;;4812635;29;20074;-58
2023/10/11 08:48:54;;;;;;;18.58;9.00;;;17.30;99.90;;;;;;4814273;29;20059;-58
2023/10/11 08:51:22;;;;;;;17.98;8.23;;;17.30;99.90;;;;;;4812600;29;20047;-58
2023/10/11 08:54:00;;;;;;;14.85;8.20;;;17.30;99.90;;;;;;4813617;29;20046;-58
2023/10/11 08:56:25;;;;;;;14.82;7.82;;;17.30;94.40;;;;;;4812993;29;20548;-58
2023/10/11 08:58:53;;;;;;;13.63;7.40;;;17.20;90.20;;;;;;4811657;29;20081;-58
2023/10/11 09:01:20;;;;;;;13.43;7.53;;;17.30;86.50;;;;;;4813605;29;20051;-58
2023/10/11 09:04:06;;;;;;;13.20;7.50;;;17.20;92.10;;;;;;4812234;29;20057;-58
2023/10/11 09:06:35;;;;;;;16.52;8.60;;;17.10;93.80;;;;;;4812133;29;20051;-58
2023/10/11 09:09:03;;;;;;;14.00;8.32;;;17.20;95.30;;;;;;4811529;29;20054;-58
2023/10/11 09:11:29;;;;;;;13.32;7.43;;;17.20;96.30;;;;;;4812562;29;20055;-58
2023/10/11 09:14:12;;;;;;;13.38;7.47;;;17.20;95.70;;;;;;4813581;29;20035;-58
2023/10/11 09:16:39;;;;;;;13.25;6.75;;;17.30;92.30;;;;;;4809666;29;20061;-58
2023/10/11 09:19:06;;;;;;;13.60;6.55;;;17.30;93.00;;;;;;4813978;29;20117;-58
2023/10/11 09:21:35;;;;;;;14.57;6.30;;;17.40;92.50;;;;;;4812400;29;20488;-58
2023/10/11 09:24:23;;;;;;;14.27;6.70;;;17.50;90.40;;;;;;4813348;29;20073;-58
2023/10/11 09:29:52;;;;;;;14.57;6.95;;;17.50;88.90;;;;;;4812448;29;20061;-57
2023/10/11 09:32:27;;;;;;;13.25;7.05;;;17.60;88.70;;;;;;4813791;29;20539;-58
2023/10/11 09:34:54;;;;;;;15.45;7.35;;;17.60;89.40;;;;;;4813173;29;20384;-57
2023/10/11 09:37:20;;;;;;;13.63;7.10;;;17.60;90.70;;;;;;4813699;29;20452;-58
2023/10/11 09:39:51;;;;;;;14.75;6.90;;;17.60;91.70;;;;;;4817375;29;20093;-58
2023/10/11 09:42:17;;;;;;;17.48;8.38;;;17.60;91.50;;;;;;4814003;29;20130;-58
2023/10/11 09:44:46;;;;;;;13.85;7.15;;;17.60;93.00;;;;;;4817453;29;20058;-58
2023/10/11 09:47:19;;;;;;;15.05;7.85;;;17.60;95.50;;;;;;4815449;29;20047;-58
2023/10/11 09:49:47;;;;;;;22.33;7.47;;;17.60;96.50;;;;;;4816949;29;20078;-58
2023/10/11 09:52:17;;;;;;;11.73;6.93;;;17.60;96.70;;;;;;4817119;29;20043;-58
2023/10/11 09:54:43;;;;;;;12.25;6.95;;;17.60;97.20;;;;;;4815817;29;20054;-58
2023/10/11 09:57:25;;;;;;;12.70;6.57;;;17.70;97.10;;;;;;4816713;29;20047;-58
2023/10/11 10:00:01;;;;;;;;;;;17.70;93.60;;;;;;4815840;29;20047;-59
2023/10/11 10:02:38;;;;;;;15.27;6.57;;;17.80;94.80;;;;;;4816900;29;19964;-58
2023/10/11 10:05:05;;;;;;;14.85;6.78;;;17.90;91.80;;;;;;4816818;29;20095;-58
2023/10/11 10:10:08;;;;;;;14.00;7.22;;;17.90;92.10;;;;;;4816596;29;20066;-58
2023/10/11 10:12:34;;;;;;;15.77;7.53;;;17.70;99.90;;;;;;4815318;29;20061;-59
2023/10/11 10:15:13;;;;;;;16.30;7.07;;;17.60;99.90;;;;;;4816716;29;20126;-58
2023/10/11 10:18:01;;;;;;;13.20;7.07;;;17.50;99.90;;;;;;4815073;29;20090;-59
2023/10/11 10:21:02;;;;;;;13.65;7.25;;;17.40;99.90;;;;;;4814928;29;20427;-59
2023/10/11 10:23:21;;;;;;;17.88;7.15;;;17.30;99.90;;;;;;4815664;29;20082;-59
2023/10/11 10:26:05;;;;;;;13.88;7.45;;;17.30;99.90;;;;;;4814187;29;20073;-58
2023/10/11 10:28:34;;;;;;;16.30;6.97;;;17.30;99.90;;;;;;4815830;29;20081;-59
2023/10/11 10:31:16;;;;;;;13.23;6.90;;;17.50;99.90;;;;;;4815947;29;20055;-58
2023/10/11 10:33:43;;;;;;;;;;;17.60;99.90;;;;;;4813878;29;20120;-59
2023/10/11 10:36:18;;;;;;;13.23;6.80;;;17.70;99.90;;;;;;4816466;29;19925;-58
2023/10/11 10:41:36;;;;;;;13.10;6.90;;;17.80;99.90;;;;;;4815350;29;20146;-58
2023/10/11 10:44:18;;;;;;;15.07;6.93;;;18.00;99.90;;;;;;4815966;29;20075;-58
2023/10/11 10:46:55;;;;;;;14.52;6.30;;;18.00;99.90;;;;;;4813769;29;20521;-58
2023/10/11 10:49:37;;;;;;;15.93;6.20;;;18.00;99.90;;;;;;4814274;29;20035;-59
2023/10/11 10:52:18;;;;;;;15.10;6.82;;;18.00;99.90;;;;;;4814398;29;20141;-58
2023/10/11 10:55:05;;;;;;;15.98;5.78;;;18.10;99.90;;;;;;4813195;29;20053;-58
2023/10/11 10:57:38;;;;;;;14.30;5.88;;;18.20;99.90;;;;;;4813007;29;20067;-58
2023/10/11 11:00:23;;;;;;;12.38;5.10;;;18.20;99.90;;;;;;4812231;29;20069;-58
2023/10/11 11:02:49;;;;;;;10.77;5.25;;;18.30;99.90;;;;;;4797167;30;20110;-58
2023/10/11 11:05:15;;;;;;;10.88;4.60;;;18.30;99.90;;;;;;4797645;29;20130;-58
2023/10/11 11:07:47;;;;;;;13.68;5.38;;;18.30;99.90;;;;;;4796011;29;20093;-58
2023/10/11 11:10:22;;;;;;;11.25;4.57;;;18.20;99.90;;;;;;4797805;30;20125;-58
2023/10/11 11:12:48;;;;;;;12.32;5.15;;;18.30;91.70;;;;;;4796420;29;20518;-58
2023/10/11 11:15:20;;;;;;;15.50;5.43;;;18.20;95.50;;;;;;4797639;29;20047;-58
2023/10/11 11:17:51;;;;;;;11.60;5.03;;;18.20;99.90;;;;;;4796957;30;20126;-55
2023/10/11 11:22:47;;;;;;;9.23;4.65;;;18.30;86.40;;;;;;4797233;29;20069;-58
2023/10/11 11:28:18;;;;;;;8.73;3.90;;;18.30;85.40;;;;;;4797229;29;20059;-58
2023/10/11 11:31:38;;;;;;;12.02;4.32;;;18.30;90.90;;;;;;4796620;29;20571;-59
2023/10/11 11:34:11;;;;;;;10.30;3.90;;;18.40;83.80;;;;;;4802391;29;20046;-59
2023/10/11 11:36:40;;;;;;;8.95;3.70;;;18.40;90.50;;;;;;4815295;29;20042;-58
2023/10/11 11:39:27;;;;;;;10.52;4.57;;;18.40;83.00;;;;;;4814189;29;20586;-58
2023/10/11 11:41:57;;;;;;;11.27;4.88;;;18.40;80.20;;;;;;4813241;29;20054;-58
2023/10/11 11:44:24;;;;;;;16.27;5.20;;;18.40;80.70;;;;;;4815321;29;20073;-58
2023/10/11 11:46:54;;;;;;;9.95;4.28;;;18.40;84.20;;;;;;4813839;29;20079;-58
2023/10/11 11:49:21;;;;;;;8.85;4.35;;;18.40;84.50;;;;;;4813633;29;20047;-57
2023/10/11 11:51:56;;;;;;;11.18;3.88;;;18.40;76.80;;;;;;4814214;29;20059;-58
2023/10/11 11:54:27;;;;;;;10.70;4.05;;;18.50;74.00;;;;;;4813742;29;20039;-58
2023/10/11 11:56:54;;;;;;;11.25;4.10;;;18.60;78.50;;;;;;4815198;29;20182;-58
2023/10/11 11:59:25;;;;;;;10.98;4.10;;;18.60;83.00;;;;;;4813282;29;20054;-58
2023/10/11 12:01:59;;;;;;;10.95;3.70;;;18.60;73.50;;;;;;4814683;29;20101;-59
2023/10/11 12:04:29;;;;;;;14.00;4.30;;;18.60;66.10;;;;;;4812401;29;20590;-58
2023/10/11 12:06:59;;;;;;;12.73;3.92;;;18.60;71.30;;;;;;4814299;29;20053;-58
2023/10/11 12:09:31;;;;;;;10.10;3.50;;;18.60;70.30;;;;;;4814390;29;20078;-58
2023/10/11 12:12:03;;;;;;;11.55;3.80;;;18.60;70.50;;;;;;4813251;29;20061;-58
2023/10/11 12:14:30;;;;;;;9.13;4.05;;;18.70;80.90;;;;;;4814506;29;20126;-58
2023/10/11 12:16:56;;;;;;;11.00;4.20;;;18.60;74.90;;;;;;4811578;29;20039;-58
2023/10/11 12:19:22;;;;;;;12.70;3.90;;;18.70;81.00;;;;;;4814474;29;20447;-58
2023/10/11 12:21:50;;;;;;;8.48;3.70;;;18.70;74.90;;;;;;4812038;29;20047;-58
2023/10/11 12:24:15;;;;;;;11.60;4.40;;;18.60;79.40;;;;;;4813650;29;20447;-58
2023/10/11 12:26:43;;;;;;;12.50;5.20;;;18.60;73.60;;;;;;4831888;29;20102;-58
2023/10/11 12:29:14;;;;;;;12.70;4.60;;;18.60;70.90;;;;;;4830207;29;20073;-58
2023/10/11 12:31:41;;;;;;;14.10;4.15;;;18.60;59.20;;;;;;4831787;29;20055;-58
2023/10/11 12:34:10;;;;;;;11.73;4.00;;;18.50;60.40;;;;;;4821540;29;20086;-58
2023/10/11 12:36:41;;;;;;;11.57;4.05;;;18.50;68.40;;;;;;4814668;29;20245;-58
2023/10/11 12:39:20;;;;;;;12.50;4.05;;;18.50;83.70;;;;;;4812719;29;20054;-58
2023/10/11 12:41:50;;;;;;;9.93;3.47;;;18.40;80.00;;;;;;4813110;29;20150;-58
2023/10/11 12:44:19;;;;;;;10.10;3.90;;;18.40;72.70;;;;;;4814220;29;20067;-58
2023/10/11 12:46:49;;;;;;;10.75;3.65;;;18.50;82.10;;;;;;4812948;29;20046;-59
2023/10/11 12:49:15;;;;;;;12.00;4.40;;;18.50;72.50;;;;;;4814329;29;20054;-57
2023/10/11 12:51:42;;;;;;;9.80;3.50;;;18.40;79.30;;;;;;4813616;29;20431;-58
2023/10/11 12:54:20;;;;;;;9.27;4.28;;;18.40;78.00;;;;;;4813917;29;20054;-58
2023/10/11 12:56:46;;;;;;;11.85;3.80;;;18.30;83.60;;;;;;4814170;29;20058;-58
2023/10/11 12:59:15;;;;;;;9.23;3.95;;;18.30;90.40;;;;;;4813239;29;20053;-59
2023/10/11 13:01:50;;;;;;;14.88;4.72;;;18.30;90.00;;;;;;4814140;29;20096;-58
2023/10/11 13:04:34;;;;;;;10.75;3.65;;;18.40;83.70;;;;;;4812986;29;20134;-58
2023/10/11 13:07:00;;;;;;;9.30;3.50;;;18.50;88.60;;;;;;4814048;29;20516;-58
2023/10/11 13:09:27;;;;;;;8.20;3.28;;;18.60;80.60;;;;;;4814079;29;20122;-58
2023/10/11 13:12:02;;;;;;;13.45;3.60;;;18.60;64.50;;;;;;4813222;29;20051;-59
2023/10/11 13:14:28;;;;;;;10.32;3.65;;;18.60;62.40;;;;;;4818300;29;20055;-58
2023/10/11 13:16:56;;;;;;;9.13;3.33;;;18.60;57.00;;;;;;4816470;29;20054;-58
2023/10/11 13:19:24;;;;;;;11.93;3.47;;;18.60;59.70;;;;;;4817830;29;20098;-58
2023/10/11 13:21:53;;;;;;;11.77;3.63;;;18.60;59.80;;;;;;4817102;29;20054;-59
2023/10/11 13:24:22;;;;;;;13.60;4.15;;;18.70;63.90;;;;;;4816715;29;20147;-58
2023/10/11 13:26:54;;;;;;;12.07;4.28;;;18.80;66.50;;;;;;4817797;29;20046;-58
2023/10/11 13:29:20;;;;;;;12.93;4.07;;;19.00;68.40;;;;;;4816347;29;20054;-58
2023/10/11 13:31:54;;;;;;;12.90;4.13;;;18.90;63.90;;;;;;4817789;29;20046;-59
2023/10/11 13:34:29;;;;;;;11.30;3.55;;;18.80;61.00;;;;;;4816007;29;20153;-58
2023/10/11 13:36:58;;;;;;;11.68;3.70;;;18.80;62.80;;;;;;4816880;29;20053;-58
2023/10/11 13:39:27;;;;;;;12.63;4.20;;;18.70;67.50;;;;;;4817586;29;20051;-59
2023/10/11 13:41:56;;;;;;;12.57;4.35;;;18.70;69.80;;;;;;4816026;29;20545;-58
2023/10/11 13:44:24;;;;;;;12.23;4.05;;;18.70;63.40;;;;;;4817849;29;20057;-58
2023/10/11 13:46:52;;;;;;;9.98;3.60;;;18.70;69.60;;;;;;4815853;29;20083;-58
2023/10/11 13:49:27;;;;;;;13.23;3.60;;;18.70;74.50;;;;;;4817230;29;20530;-58
2023/10/11 13:52:02;;;;;;;12.55;3.70;;;18.70;76.80;;;;;;4816628;29;20093;-58
2023/10/11 13:54:36;;;;;;;11.30;4.35;;;18.80;76.00;;;;;;4815025;29;20065;-58